Time;durP1;ratioP1;P1;durP2;ratioP2;P2;SDS_P1;SDS_P2;PMS_P1;PMS_P2;Temp;Humidity;BMP_temperature;BMP_pressure;BME280_temperature;BME280_humidity;BME280_pressure;Samples;Min_cycle;Max_cycle;Signal;HPM_P1;HPM_P2
2022/08/07 00:03:01;;;;;;;13.13;7.32;;;;;;;;;;5050825;28;20131;-72
2022/08/07 00:06:06;;;;;;;15.35;7.05;;;;;;;;;;5050478;28;20037;-72
2022/08/07 00:09:10;;;;;;;20.88;7.75;;;;;;;;;;5050480;28;20049;-72
2022/08/07 00:12:14;;;;;;;18.75;8.05;;;;;;;;;;5050652;28;20041;-73
2022/08/07 00:15:19;;;;;;;16.38;7.65;;;;;;;;;;5050582;28;20073;-73
2022/08/07 00:18:24;;;;;;;17.33;7.63;;;;;;;;;;5050283;28;20054;-73
2022/08/07 00:21:28;;;;;;;18.13;7.43;;;;;;;;;;5050649;28;20033;-73
2022/08/07 00:24:33;;;;;;;18.23;8.55;;;;;;;;;;5049742;28;20033;-73
2022/08/07 00:27:37;;;;;;;12.23;7.22;;;;;;;;;;5054539;28;20507;-73
2022/08/07 00:30:41;;;;;;;12.38;7.82;;;;;;;;;;5054313;28;20071;-73
2022/08/07 00:33:45;;;;;;;13.82;7.00;;;;;;;;;;5053219;28;20042;-73
2022/08/07 00:36:49;;;;;;;11.40;7.07;;;;;;;;;;5053107;28;20041;-73
2022/08/07 00:39:54;;;;;;;15.30;7.55;;;;;;;;;;5053148;28;20177;-73
2022/08/07 00:42:58;;;;;;;18.20;7.65;;;;;;;;;;5053057;28;20416;-73
2022/08/07 00:46:03;;;;;;;19.45;7.85;;;;;;;;;;5041516;28;20037;-73
2022/08/07 00:49:08;;;;;;;14.07;7.68;;;;;;;;;;5053191;28;20056;-73
2022/08/07 00:52:12;;;;;;;9.50;6.72;;;;;;;;;;5053221;28;20037;-74
2022/08/07 00:55:16;;;;;;;12.32;7.50;;;;;;;;;;5053575;28;20036;-73
2022/08/07 00:58:21;;;;;;;20.23;7.55;;;;;;;;;;5053876;28;20036;-73
2022/08/07 01:01:25;;;;;;;16.15;7.78;;;;;;;;;;5053628;28;20504;-73
2022/08/07 01:04:29;;;;;;;13.55;6.93;;;;;;;;;;5053390;28;20044;-73
2022/08/07 01:07:33;;;;;;;10.10;7.45;;;;;;;;;;5053171;28;20037;-73
2022/08/07 01:10:38;;;;;;;12.80;8.35;;;;;;;;;;5053777;28;20053;-73
2022/08/07 01:13:42;;;;;;;13.55;7.90;;;;;;;;;;5053930;28;20037;-73
2022/08/07 01:16:47;;;;;;;9.88;7.63;;;;;;;;;;5052467;28;20037;-73
2022/08/07 01:19:53;;;;;;;13.55;7.32;;;;;;;;;;5052954;28;20037;-73
2022/08/07 01:22:59;;;;;;;11.27;6.95;;;;;;;;;;5052575;28;20044;-73
2022/08/07 01:26:03;;;;;;;8.23;6.93;;;;;;;;;;5040960;28;20204;-73
2022/08/07 01:29:07;;;;;;;10.73;6.53;;;;;;;;;;5053446;28;20049;-73
2022/08/07 01:32:12;;;;;;;15.30;6.85;;;;;;;;;;5052612;28;20037;-73
2022/08/07 01:35:18;;;;;;;9.88;7.05;;;;;;;;;;5052185;28;20044;-73
2022/08/07 01:38:24;;;;;;;14.18;7.38;;;;;;;;;;5051589;28;20041;-73
2022/08/07 01:41:30;;;;;;;8.02;6.68;;;;;;;;;;5052238;28;20044;-73
2022/08/07 01:44:38;;;;;;;12.38;6.40;;;;;;;;;;5051838;28;20132;-73
2022/08/07 01:47:43;;;;;;;8.52;6.10;;;;;;;;;;5053232;28;20465;-73
2022/08/07 01:50:51;;;;;;;7.70;6.50;;;;;;;;;;5052083;28;20049;-73
2022/08/07 01:53:57;;;;;;;10.05;7.18;;;;;;;;;;5052253;28;20504;-73
2022/08/07 01:57:05;;;;;;;12.25;7.30;;;;;;;;;;5051689;28;20050;-73
2022/08/07 02:00:12;;;;;;;9.32;6.72;;;;;;;;;;5040716;28;20045;-73
2022/08/07 02:03:22;;;;;;;14.00;6.85;;;;;;;;;;5052199;28;20048;-73
2022/08/07 02:06:29;;;;;;;12.23;6.80;;;;;;;;;;5051703;28;20045;-73
2022/08/07 02:09:36;;;;;;;11.60;6.18;;;;;;;;;;5051651;28;20048;-73
2022/08/07 02:12:42;;;;;;;11.52;7.05;;;;;;;;;;5052754;28;20051;-73
2022/08/07 02:15:50;;;;;;;10.23;6.63;;;;;;;;;;5040502;28;20048;-73
2022/08/07 02:18:56;;;;;;;9.70;7.15;;;;;;;;;;5040755;28;20056;-73
2022/08/07 02:22:02;;;;;;;13.82;6.68;;;;;;;;;;5051634;28;20032;-73
2022/08/07 02:25:08;;;;;;;13.32;6.82;;;;;;;;;;5051606;28;20037;-73
2022/08/07 02:28:13;;;;;;;9.30;7.00;;;;;;;;;;5051675;28;20040;-73
2022/08/07 02:31:18;;;;;;;17.85;6.97;;;;;;;;;;5051309;28;20041;-73
2022/08/07 02:34:23;;;;;;;14.35;6.35;;;;;;;;;;5051148;28;20362;-73
2022/08/07 02:37:31;;;;;;;13.43;6.57;;;;;;;;;;5051585;28;20041;-73
2022/08/07 02:40:37;;;;;;;15.80;6.80;;;;;;;;;;5051209;28;20083;-73
2022/08/07 02:43:43;;;;;;;10.48;7.03;;;;;;;;;;5051277;28;20399;-73
2022/08/07 02:46:53;;;;;;;10.55;6.70;;;;;;;;;;5050909;28;20047;-73
2022/08/07 02:49:59;;;;;;;13.95;6.75;;;;;;;;;;5051069;28;20515;-73
2022/08/07 02:53:10;;;;;;;9.32;6.60;;;;;;;;;;5051098;28;20044;-73
2022/08/07 02:56:17;;;;;;;11.55;7.53;;;;;;;;;;5051098;28;20041;-73
2022/08/07 02:59:23;;;;;;;9.88;6.30;;;;;;;;;;5051544;28;20575;-74
2022/08/07 03:02:28;;;;;;;11.23;7.25;;;;;;;;;;5051719;28;20040;-73
2022/08/07 03:05:35;;;;;;;9.10;7.65;;;;;;;;;;5051497;28;20205;-73
2022/08/07 03:08:39;;;;;;;10.57;6.90;;;;;;;;;;5038899;28;20041;-73
2022/08/07 03:11:45;;;;;;;9.35;7.30;;;;;;;;;;5050935;28;20037;-73
2022/08/07 03:14:51;;;;;;;13.45;6.72;;;;;;;;;;5050421;28;20058;-73
2022/08/07 03:17:56;;;;;;;15.93;7.03;;;;;;;;;;5050530;28;20374;-74
2022/08/07 03:21:06;;;;;;;9.65;6.40;;;;;;;;;;5050333;28;20371;-73
2022/08/07 03:24:11;;;;;;;15.02;6.45;;;;;;;;;;5050444;28;20033;-74
2022/08/07 03:27:15;;;;;;;10.25;6.63;;;;;;;;;;5050383;28;20033;-74
2022/08/07 03:30:24;;;;;;;12.77;6.40;;;;;;;;;;5050252;28;20052;-74
2022/08/07 03:33:29;;;;;;;9.60;6.90;;;;;;;;;;5050290;28;20033;-73
2022/08/07 03:36:34;;;;;;;13.55;6.88;;;;;;;;;;5050557;28;20045;-74
2022/08/07 03:39:40;;;;;;;9.85;6.47;;;;;;;;;;5050263;28;20041;-73
2022/08/07 03:42:44;;;;;;;12.85;6.97;;;;;;;;;;5030239;28;20046;-73
2022/08/07 03:45:51;;;;;;;12.55;6.32;;;;;;;;;;5019099;28;20045;-73
2022/08/07 03:49:01;;;;;;;13.27;6.30;;;;;;;;;;5030296;28;20054;-73
2022/08/07 03:52:09;;;;;;;11.63;6.70;;;;;;;;;;5029985;28;20057;-73
2022/08/07 03:55:13;;;;;;;12.52;6.78;;;;;;;;;;5030314;28;20064;-74
2022/08/07 03:58:22;;;;;;;11.52;6.63;;;;;;;;;;5030946;28;20038;-74
2022/08/07 04:01:28;;;;;;;13.82;7.18;;;;;;;;;;5029670;28;20504;-74
2022/08/07 04:04:33;;;;;;;9.82;6.75;;;;;;;;;;5018581;28;20037;-74
2022/08/07 04:07:46;;;;;;;10.13;7.38;;;;;;;;;;5029914;28;20034;-74
2022/08/07 04:10:53;;;;;;;15.63;9.88;;;;;;;;;;5018944;28;20060;-74
2022/08/07 04:13:59;;;;;;;15.65;10.90;;;;;;;;;;5029708;28;20519;-73
2022/08/07 04:17:04;;;;;;;13.13;9.43;;;;;;;;;;5029854;28;20045;-74
2022/08/07 04:20:11;;;;;;;18.33;13.27;;;;;;;;;;5030406;28;20050;-74
2022/08/07 04:23:15;;;;;;;28.30;17.60;;;;;;;;;;5029723;28;20041;-74
2022/08/07 04:26:19;;;;;;;26.92;19.20;;;;;;;;;;5029739;28;20041;-74
2022/08/07 04:29:24;;;;;;;28.67;20.55;;;;;;;;;;5029657;28;20060;-73
2022/08/07 04:32:28;;;;;;;26.58;13.93;;;;;;;;;;5018340;28;20045;-73
2022/08/07 04:35:33;;;;;;;24.13;14.65;;;;;;;;;;5029882;28;20060;-73
2022/08/07 04:38:38;;;;;;;15.95;13.48;;;;;;;;;;5030470;28;20041;-73
2022/08/07 04:41:44;;;;;;;28.40;12.82;;;;;;;;;;5046550;28;20060;-74
2022/08/07 04:44:50;;;;;;;16.98;11.85;;;;;;;;;;5038051;28;20063;-74
2022/08/07 04:47:55;;;;;;;14.73;10.95;;;;;;;;;;5050166;28;20214;-73
2022/08/07 04:51:08;;;;;;;15.32;12.07;;;;;;;;;;5049666;28;20052;-73
2022/08/07 04:54:17;;;;;;;17.63;11.80;;;;;;;;;;5050134;28;20515;-74
2022/08/07 04:57:25;;;;;;;16.50;9.48;;;;;;;;;;5049383;28;20048;-73
2022/08/07 05:00:38;;;;;;;18.40;10.80;;;;;;;;;;5049089;28;20033;-73
2022/08/07 05:03:55;;;;;;;18.10;9.77;;;;;;;;;;5048994;28;20047;-73
2022/08/07 05:07:06;;;;;;;14.55;9.15;;;;;;;;;;5049180;28;20047;-73
2022/08/07 05:10:13;;;;;;;13.13;7.53;;;;;;;;;;5037481;28;20084;-74
2022/08/07 05:13:28;;;;;;;13.98;8.70;;;;;;;;;;5051863;28;20271;-74
2022/08/07 05:16:34;;;;;;;15.45;8.57;;;;;;;;;;5053294;28;20053;-73
2022/08/07 05:19:41;;;;;;;17.48;7.82;;;;;;;;;;5053840;28;20044;-73
2022/08/07 05:22:49;;;;;;;13.55;7.53;;;;;;;;;;5052658;28;20044;-74
2022/08/07 05:25:54;;;;;;;12.10;7.30;;;;;;;;;;5052831;28;20049;-74
2022/08/07 05:29:00;;;;;;;15.27;7.53;;;;;;;;;;5053288;28;20517;-74
2022/08/07 05:32:07;;;;;;;10.65;7.55;;;;;;;;;;5052699;28;20049;-73
2022/08/07 05:35:12;;;;;;;20.52;9.05;;;;;;;;;;5052657;28;20041;-74
2022/08/07 05:38:17;;;;;;;19.83;8.85;;;;;;;;;;5052457;28;20499;-74
2022/08/07 05:41:22;;;;;;;13.75;8.02;;;;;;;;;;5051931;28;20057;-74
2022/08/07 05:44:29;;;;;;;13.40;7.45;;;;;;;;;;5052429;28;20044;-74
2022/08/07 05:47:37;;;;;;;12.30;6.72;;;;;;;;;;5040665;28;20396;-74
2022/08/07 05:50:41;;;;;;;9.02;7.05;;;;;;;;;;5052077;28;20049;-74
2022/08/07 05:53:46;;;;;;;13.98;7.63;;;;;;;;;;5051753;28;20037;-74
2022/08/07 05:56:51;;;;;;;12.40;7.15;;;;;;;;;;5052313;28;20049;-74
2022/08/07 05:59:56;;;;;;;11.88;6.78;;;;;;;;;;5051810;28;20041;-72
2022/08/07 06:03:03;;;;;;;13.43;6.63;;;;;;;;;;5051759;28;20248;-74
2022/08/07 06:06:08;;;;;;;16.50;6.85;;;;;;;;;;5051847;28;20517;-74
2022/08/07 06:09:14;;;;;;;11.88;6.43;;;;;;;;;;5052562;28;20044;-74
2022/08/07 06:12:22;;;;;;;14.50;6.63;;;;;;;;;;5051709;28;20037;-74
2022/08/07 06:15:28;;;;;;;11.20;6.70;;;;;;;;;;5051811;28;20044;-74
2022/08/07 06:18:33;;;;;;;13.57;7.05;;;;;;;;;;5051570;28;20050;-74
2022/08/07 06:21:38;;;;;;;13.45;6.50;;;;;;;;;;5051744;28;20045;-74
2022/08/07 06:24:42;;;;;;;10.63;6.40;;;;;;;;;;5051157;28;20349;-74
2022/08/07 06:27:46;;;;;;;14.18;6.18;;;;;;;;;;5051481;28;20049;-72
2022/08/07 06:30:51;;;;;;;12.32;5.50;;;;;;;;;;5051312;28;20056;-72
2022/08/07 06:33:56;;;;;;;12.00;6.53;;;;;;;;;;5051170;28;20040;-72
2022/08/07 06:37:01;;;;;;;6.63;5.28;;;;;;;;;;5039779;28;20043;-72
2022/08/07 06:40:10;;;;;;;10.60;4.90;;;;;;;;;;5050849;28;20382;-72
2022/08/07 06:43:15;;;;;;;14.32;5.45;;;;;;;;;;5052276;28;20053;-72
2022/08/07 06:46:44;;;;;;;10.57;5.10;;;;;;;;;;5043006;28;20032;-72
2022/08/07 06:49:50;;;;;;;10.63;5.78;;;;;;;;;;5050714;28;20064;-73
2022/08/07 06:52:55;;;;;;;10.98;5.32;;;;;;;;;;5050988;28;20040;-73
2022/08/07 06:56:04;;;;;;;14.05;4.80;;;;;;;;;;5051026;28;20127;-73
2022/08/07 06:59:14;;;;;;;13.10;5.95;;;;;;;;;;5050976;28;20524;-73
2022/08/07 07:02:25;;;;;;;16.05;6.57;;;;;;;;;;5050890;28;20037;-73
2022/08/07 07:05:29;;;;;;;23.02;7.32;;;;;;;;;;5050716;28;20055;-73
2022/08/07 07:08:35;;;;;;;18.42;6.95;;;;;;;;;;5039557;28;20499;-73
2022/08/07 07:11:39;;;;;;;21.17;7.18;;;;;;;;;;5051649;28;20048;-73
2022/08/07 07:14:44;;;;;;;16.08;6.75;;;;;;;;;;5050780;28;20040;-73
2022/08/07 07:18:03;;;;;;;13.15;6.88;;;;;;;;;;5050654;28;20037;-73
2022/08/07 07:21:11;;;;;;;12.97;6.27;;;;;;;;;;5051582;28;20495;-73
2022/08/07 07:24:16;;;;;;;19.42;7.05;;;;;;;;;;5051044;28;20268;-73
2022/08/07 07:27:23;;;;;;;14.85;6.70;;;;;;;;;;5051601;28;20033;-73
2022/08/07 07:30:30;;;;;;;24.40;7.47;;;;;;;;;;5050168;28;20041;-73
2022/08/07 07:33:36;;;;;;;11.85;6.75;;;;;;;;;;5050491;28;20047;-73
2022/08/07 07:40:10;;;;;;;10.80;6.10;;;;;;;;;;5050967;28;20048;-73
2022/08/07 07:43:16;;;;;;;14.77;6.32;;;;;;;;;;5050235;28;20057;-73
2022/08/07 07:46:24;;;;;;;14.80;6.22;;;;;;;;;;5050132;28;20053;-73
2022/08/07 07:49:29;;;;;;;12.13;5.35;;;;;;;;;;5049914;28;20052;-73
2022/08/07 07:52:34;;;;;;;13.18;5.72;;;;;;;;;;5050986;28;20158;-73
2022/08/07 07:55:38;;;;;;;10.07;6.03;;;;;;;;;;5050728;28;20045;-73
2022/08/07 07:58:43;;;;;;;14.02;6.07;;;;;;;;;;5051437;28;20479;-73
2022/08/07 08:01:49;;;;;;;14.38;5.78;;;;;;;;;;5050208;28;20040;-73
2022/08/07 08:04:54;;;;;;;8.15;4.97;;;;;;;;;;5050854;28;20036;-73
2022/08/07 08:07:58;;;;;;;14.02;5.38;;;;;;;;;;5050864;28;20045;-73
2022/08/07 08:11:07;;;;;;;12.60;5.35;;;;;;;;;;5050353;28;20041;-73
2022/08/07 08:14:11;;;;;;;13.05;5.22;;;;;;;;;;5050583;28;20511;-73
2022/08/07 08:17:17;;;;;;;19.23;5.68;;;;;;;;;;5049609;28;20480;-73
2022/08/07 08:20:22;;;;;;;15.40;6.50;;;;;;;;;;5050955;28;20181;-73
2022/08/07 08:27:04;;;;;;;7.70;5.00;;;;;;;;;;5049617;28;20039;-72
2022/08/07 08:30:11;;;;;;;17.48;5.25;;;;;;;;;;5050351;28;20049;-73
2022/08/07 08:33:18;;;;;;;8.40;5.00;;;;;;;;;;5049867;28;20037;-73
2022/08/07 08:36:27;;;;;;;11.85;5.82;;;;;;;;;;5050654;28;20049;-73
2022/08/07 08:39:32;;;;;;;8.13;4.85;;;;;;;;;;5050669;28;20037;-73
2022/08/07 08:42:40;;;;;;;13.32;4.53;;;;;;;;;;5050650;28;20045;-73
2022/08/07 08:45:57;;;;;;;8.18;4.72;;;;;;;;;;5049539;28;20033;-73
2022/08/07 08:49:08;;;;;;;8.50;5.13;;;;;;;;;;5053260;28;20033;-73
2022/08/07 08:52:25;;;;;;;8.00;4.20;;;;;;;;;;5053067;28;20488;-73
2022/08/07 08:55:34;;;;;;;16.83;5.60;;;;;;;;;;5053217;28;20045;-73
2022/08/07 08:58:46;;;;;;;8.18;4.90;;;;;;;;;;5053849;28;20041;-73
2022/08/07 09:02:04;;;;;;;9.35;5.28;;;;;;;;;;5053178;28;20041;-73
2022/08/07 09:05:24;;;;;;;14.65;5.60;;;;;;;;;;5052946;28;20473;-73
2022/08/07 09:08:32;;;;;;;8.80;4.77;;;;;;;;;;5054068;28;20049;-73
2022/08/07 09:11:42;;;;;;;11.23;5.82;;;;;;;;;;5053942;28;20045;-73
2022/08/07 09:15:06;;;;;;;6.47;5.00;;;;;;;;;;5052968;28;20045;-73
2022/08/07 09:18:19;;;;;;;6.57;5.13;;;;;;;;;;5053033;28;20288;-73
2022/08/07 09:21:33;;;;;;;13.05;5.68;;;;;;;;;;5053434;28;20507;-73
2022/08/07 09:24:51;;;;;;;13.52;5.53;;;;;;;;;;5053272;28;20052;-73
2022/08/07 09:28:11;;;;;;;10.43;5.30;;;;;;;;;;5053432;28;20493;-73
2022/08/07 09:31:31;;;;;;;12.30;5.70;;;;;;;;;;5053041;28;20079;-73
2022/08/07 09:34:36;;;;;;;;;;;;;;;;;;5052855;28;20040;-73
2022/08/07 09:37:43;;;;;;;12.75;6.10;;;;;;;;;;5052023;28;19916;-73
2022/08/07 09:40:47;;;;;;;7.55;5.60;;;;;;;;;;5052067;28;20545;-73
2022/08/07 09:44:10;;;;;;;14.45;5.65;;;;;;;;;;5053215;28;20362;-73
2022/08/07 09:47:18;;;;;;;9.63;6.07;;;;;;;;;;5052050;28;20041;-73
2022/08/07 09:50:23;;;;;;;15.40;6.60;;;;;;;;;;5052163;28;20053;-73
2022/08/07 09:53:28;;;;;;;14.70;7.13;;;;;;;;;;5051769;28;20136;-73
2022/08/07 09:56:38;;;;;;;10.80;6.35;;;;;;;;;;5053205;28;20064;-73
2022/08/07 09:59:55;;;;;;;8.73;5.90;;;;;;;;;;5052507;28;20048;-73
2022/08/07 10:03:06;;;;;;;12.65;6.70;;;;;;;;;;5051961;28;20357;-73
2022/08/07 10:06:30;;;;;;;15.15;6.22;;;;;;;;;;5052813;28;20037;-73
2022/08/07 10:09:41;;;;;;;7.32;5.32;;;;;;;;;;5052454;28;20041;-73
2022/08/07 10:13:04;;;;;;;11.30;6.15;;;;;;;;;;5052876;28;20048;-73
2022/08/07 10:16:15;;;;;;;8.45;5.80;;;;;;;;;;5052211;28;20491;-73
2022/08/07 10:19:19;;;;;;;;;;;;;;;;;;5053314;28;20464;-73
2022/08/07 10:22:30;;;;;;;11.15;6.32;;;;;;;;;;5051743;28;19919;-73
2022/08/07 10:25:44;;;;;;;9.98;5.53;;;;;;;;;;5052200;28;20032;-74
2022/08/07 10:28:57;;;;;;;9.05;5.60;;;;;;;;;;5052449;28;20041;-73
2022/08/07 10:32:05;;;;;;;10.18;5.50;;;;;;;;;;5052090;28;20045;-73
2022/08/07 10:35:29;;;;;;;9.93;6.10;;;;;;;;;;5052225;28;20033;-73
2022/08/07 10:38:49;;;;;;;9.25;5.43;;;;;;;;;;5052030;28;20041;-73
2022/08/07 10:42:12;;;;;;;9.60;6.25;;;;;;;;;;5051805;28;20382;-73
2022/08/07 10:45:20;;;;;;;11.95;5.30;;;;;;;;;;5051579;28;20037;-73
2022/08/07 10:48:30;;;;;;;10.57;5.30;;;;;;;;;;5050869;28;20319;-73
2022/08/07 10:51:34;;;;;;;5.70;5.10;;;;;;;;;;5050682;28;20049;-73
2022/08/07 10:54:45;;;;;;;4.90;4.40;;;;;;;;;;5051792;28;20033;-73
2022/08/07 10:57:50;;;;;;;8.68;6.63;;;;;;;;;;5051661;28;20045;-73
2022/08/07 11:01:09;;;;;;;10.40;5.65;;;;;;;;;;5051896;28;20037;-73
2022/08/07 11:04:32;;;;;;;9.95;5.80;;;;;;;;;;5051459;28;20187;-73
2022/08/07 11:07:43;;;;;;;10.88;5.38;;;;;;;;;;5051356;28;20037;-73
2022/08/07 11:10:54;;;;;;;7.63;5.20;;;;;;;;;;5050468;28;20045;-72
2022/08/07 11:14:03;;;;;;;10.23;5.20;;;;;;;;;;5051338;28;20369;-72
2022/08/07 11:17:08;;;;;;;6.05;4.93;;;;;;;;;;5051541;28;20036;-73
2022/08/07 11:20:15;;;;;;;8.20;5.40;;;;;;;;;;5051856;28;20033;-73
2022/08/07 11:23:35;;;;;;;9.68;5.53;;;;;;;;;;5051268;28;20041;-73
2022/08/07 11:26:59;;;;;;;6.20;4.80;;;;;;;;;;5051246;28;20041;-73
2022/08/07 11:30:03;;;;;;;10.57;5.88;;;;;;;;;;5050269;28;20045;-73
2022/08/07 11:33:27;;;;;;;6.00;5.40;;;;;;;;;;5050716;28;20061;-72
2022/08/07 11:36:43;;;;;;;8.68;5.80;;;;;;;;;;5050911;28;20045;-73
2022/08/07 11:40:00;;;;;;;14.52;5.70;;;;;;;;;;5049674;28;20037;-73
2022/08/07 11:43:22;;;;;;;7.88;5.50;;;;;;;;;;5049870;28;20516;-73
2022/08/07 11:46:46;;;;;;;8.98;5.45;;;;;;;;;;5050887;28;20045;-73
2022/08/07 11:49:51;;;;;;;9.88;5.40;;;;;;;;;;5050783;28;20040;-72
2022/08/07 11:53:03;;;;;;;8.38;4.97;;;;;;;;;;5049849;28;20041;-72
2022/08/07 11:56:18;;;;;;;6.28;5.13;;;;;;;;;;5050585;28;20032;-73
2022/08/07 11:59:23;;;;;;;7.03;5.53;;;;;;;;;;5050949;28;20041;-73
2022/08/07 12:02:33;;;;;;;8.05;5.15;;;;;;;;;;5050699;28;20508;-73
2022/08/07 12:05:42;;;;;;;6.10;5.50;;;;;;;;;;5050078;28;20040;-73
2022/08/07 12:08:53;;;;;;;11.77;7.35;;;;;;;;;;5049962;28;20029;-73
2022/08/07 12:12:11;;;;;;;8.77;5.57;;;;;;;;;;5050335;28;20064;-73
2022/08/07 12:15:19;;;;;;;6.53;5.00;;;;;;;;;;5049890;28;20037;-72
2022/08/07 12:18:30;;;;;;;9.65;5.47;;;;;;;;;;5049856;28;20188;-73
2022/08/07 12:21:35;;;;;;;9.48;5.68;;;;;;;;;;5052010;28;20036;-73
2022/08/07 12:28:26;;;;;;;14.98;6.40;;;;;;;;;;5054037;28;20396;-73
2022/08/07 12:31:51;;;;;;;9.68;6.18;;;;;;;;;;5053651;28;20045;-73
2022/08/07 12:34:57;;;;;;;9.02;5.60;;;;;;;;;;5057753;28;20473;-73
2022/08/07 12:38:02;;;;;;;9.18;5.82;;;;;;;;;;5054447;28;20378;-73
2022/08/07 12:41:06;;;;;;;9.10;5.32;;;;;;;;;;5054135;28;20049;-73
2022/08/07 12:44:13;;;;;;;9.18;4.70;;;;;;;;;;5053331;28;20041;-73
2022/08/07 12:47:32;;;;;;;6.53;5.20;;;;;;;;;;5053259;28;20497;-73
2022/08/07 12:50:41;;;;;;;9.68;5.85;;;;;;;;;;5054006;28;20037;-73
2022/08/07 12:54:03;;;;;;;8.40;6.25;;;;;;;;;;5054226;28;20036;-73
2022/08/07 12:57:07;;;;;;;7.43;5.57;;;;;;;;;;5053425;28;20362;-72
2022/08/07 13:00:12;;;;;;;50.17;7.65;;;;;;;;;;5053409;28;20036;-72
2022/08/07 13:03:37;;;;;;;22.20;6.68;;;;;;;;;;5054022;28;20037;-73
2022/08/07 13:06:56;;;;;;;19.63;6.00;;;;;;;;;;5055089;28;20524;-73
2022/08/07 13:10:27;;;;;;;17.33;5.38;;;;;;;;;;5052949;28;20392;-73
2022/08/07 13:13:36;;;;;;;23.48;7.13;;;;;;;;;;5053849;28;20045;-73
2022/08/07 13:16:52;;;;;;;31.60;7.25;;;;;;;;;;5053529;28;20033;-73
2022/08/07 13:19:56;;;;;;;17.48;5.70;;;;;;;;;;5053617;28;20044;-73
2022/08/07 13:23:06;;;;;;;9.90;5.40;;;;;;;;;;5052553;28;20103;-73
2022/08/07 13:26:21;;;;;;;10.03;5.67;;;;;;;;;;5053003;28;20476;-73
2022/08/07 13:29:49;;;;;;;22.17;6.85;;;;;;;;;;5053756;28;20049;-73
2022/08/07 13:32:57;;;;;;;11.82;5.82;;;;;;;;;;5052339;28;20041;-73
2022/08/07 13:36:18;;;;;;;12.32;5.45;;;;;;;;;;5053606;28;20052;-73
2022/08/07 13:39:28;;;;;;;14.68;5.78;;;;;;;;;;5052597;28;20040;-73
2022/08/07 13:42:33;;;;;;;10.75;5.25;;;;;;;;;;5053306;28;20063;-73
2022/08/07 13:45:40;;;;;;;18.02;5.65;;;;;;;;;;5053346;28;20330;-73
2022/08/07 13:48:46;;;;;;;8.20;4.93;;;;;;;;;;5053139;28;20041;-73
2022/08/07 13:51:51;;;;;;;6.75;4.80;;;;;;;;;;5053077;28;20052;-73
2022/08/07 13:54:56;;;;;;;10.30;5.10;;;;;;;;;;5052804;28;20045;-73
2022/08/07 14:01:33;;;;;;;9.15;4.68;;;;;;;;;;5052819;28;20041;-74
2022/08/07 14:04:49;;;;;;;8.90;5.18;;;;;;;;;;5052490;28;20033;-73
2022/08/07 14:07:54;;;;;;;10.55;5.20;;;;;;;;;;5052062;28;20493;-73
2022/08/07 14:11:00;;;;;;;11.30;5.70;;;;;;;;;;5052048;28;20045;-73
2022/08/07 14:14:07;;;;;;;11.80;5.70;;;;;;;;;;5052775;28;20413;-73
2022/08/07 14:17:13;;;;;;;11.00;4.95;;;;;;;;;;5052600;28;20043;-74
2022/08/07 14:20:24;;;;;;;9.70;5.03;;;;;;;;;;5052450;28;20055;-73
2022/08/07 14:23:28;;;;;;;6.88;5.20;;;;;;;;;;5039998;28;20385;-73
2022/08/07 14:26:56;;;;;;;14.15;5.10;;;;;;;;;;5051886;28;20373;-73
2022/08/07 14:30:03;;;;;;;19.25;7.13;;;;;;;;;;5052559;28;20037;-73
2022/08/07 14:33:08;;;;;;;29.90;7.25;;;;;;;;;;5052106;28;20049;-73
2022/08/07 14:36:13;;;;;;;16.27;7.22;;;;;;;;;;5051406;28;20381;-73
2022/08/07 14:39:18;;;;;;;17.35;7.68;;;;;;;;;;5051527;28;20052;-73
2022/08/07 14:42:24;;;;;;;25.58;8.15;;;;;;;;;;5051422;28;20519;-73
2022/08/07 14:45:31;;;;;;;15.68;7.82;;;;;;;;;;5051966;28;20041;-73
2022/08/07 14:48:37;;;;;;;15.00;8.07;;;;;;;;;;5051966;28;20049;-73
2022/08/07 14:51:44;;;;;;;25.67;8.80;;;;;;;;;;5052066;28;20060;-73
2022/08/07 14:54:49;;;;;;;39.20;10.82;;;;;;;;;;5051981;28;20037;-73
2022/08/07 14:57:53;;;;;;;52.50;15.13;;;;;;;;;;5051107;28;20052;-72
2022/08/07 15:00:59;;;;;;;55.75;18.48;;;;;;;;;;5051232;28;20393;-72
2022/08/07 15:04:04;;;;;;;33.33;14.02;;;;;;;;;;5050775;28;20124;-71
2022/08/07 15:07:10;;;;;;;31.58;13.27;;;;;;;;;;5051823;28;20047;-71
2022/08/07 15:10:22;;;;;;;35.13;13.93;;;;;;;;;;5050956;28;20044;-72
2022/08/07 15:13:28;;;;;;;38.75;13.63;;;;;;;;;;5050644;28;20048;-72
2022/08/07 15:16:44;;;;;;;41.35;13.30;;;;;;;;;;5050774;28;20048;-72
2022/08/07 15:19:52;;;;;;;45.42;13.23;;;;;;;;;;5038941;28;20067;-72
2022/08/07 15:22:58;;;;;;;22.42;11.40;;;;;;;;;;5051108;28;20511;-72
2022/08/07 15:26:04;;;;;;;31.15;12.40;;;;;;;;;;5050558;28;20063;-71
2022/08/07 15:29:09;;;;;;;20.60;11.20;;;;;;;;;;5050615;28;20036;-71
2022/08/07 15:32:14;;;;;;;22.67;10.98;;;;;;;;;;5050048;28;20052;-73
2022/08/07 15:35:22;;;;;;;14.25;10.30;;;;;;;;;;5050908;28;20295;-71
2022/08/07 15:38:28;;;;;;;14.18;10.32;;;;;;;;;;5051237;28;20048;-71
2022/08/07 15:41:38;;;;;;;14.07;10.23;;;;;;;;;;5050863;28;20071;-72
2022/08/07 15:44:44;;;;;;;11.68;9.80;;;;;;;;;;5050108;28;20052;-72
2022/08/07 15:47:53;;;;;;;14.65;10.40;;;;;;;;;;5050456;28;20037;-72
2022/08/07 15:51:05;;;;;;;16.08;10.52;;;;;;;;;;5050005;28;20499;-72
2022/08/07 15:54:11;;;;;;;11.88;10.55;;;;;;;;;;5051014;28;20046;-72
2022/08/07 15:57:20;;;;;;;16.25;10.73;;;;;;;;;;5050170;28;20033;-72
2022/08/07 16:00:29;;;;;;;20.17;10.55;;;;;;;;;;5051176;28;20060;-72
2022/08/07 16:03:38;;;;;;;18.08;10.82;;;;;;;;;;5050209;28;20055;-72
2022/08/07 16:06:42;;;;;;;20.20;10.77;;;;;;;;;;5050997;28;20381;-72
2022/08/07 16:09:52;;;;;;;17.50;9.60;;;;;;;;;;5050928;28;20040;-72
2022/08/07 16:13:00;;;;;;;18.58;11.80;;;;;;;;;;5050026;28;20045;-72
2022/08/07 16:16:22;;;;;;;33.00;11.52;;;;;;;;;;5049997;28;20044;-72
2022/08/07 16:19:37;;;;;;;17.77;10.50;;;;;;;;;;5051007;28;20396;-72
2022/08/07 16:22:49;;;;;;;17.73;10.48;;;;;;;;;;5050695;28;20147;-72
2022/08/07 16:26:11;;;;;;;22.00;10.75;;;;;;;;;;5049840;28;20412;-72
2022/08/07 16:29:23;;;;;;;13.93;10.85;;;;;;;;;;5049875;28;20048;-72
2022/08/07 16:32:32;;;;;;;24.67;11.80;;;;;;;;;;5049675;28;20078;-72
2022/08/07 16:35:36;;;;;;;14.63;11.60;;;;;;;;;;5050301;28;20048;-72
2022/08/07 16:38:45;;;;;;;14.07;10.88;;;;;;;;;;5050834;28;20060;-72
2022/08/07 16:42:01;;;;;;;14.88;10.60;;;;;;;;;;5049346;28;20048;-72
2022/08/07 16:45:12;;;;;;;14.80;10.63;;;;;;;;;;5038438;28;20512;-72
2022/08/07 16:48:19;;;;;;;11.60;9.15;;;;;;;;;;5050625;28;20530;-72
2022/08/07 16:51:34;;;;;;;16.77;9.98;;;;;;;;;;5050284;28;20044;-73
2022/08/07 16:54:44;;;;;;;18.08;9.77;;;;;;;;;;5049414;28;20053;-73
2022/08/07 16:57:59;;;;;;;16.48;10.25;;;;;;;;;;5050647;28;20048;-73
2022/08/07 17:01:28;;;;;;;18.92;11.32;;;;;;;;;;5050555;28;20530;-72
2022/08/07 17:04:51;;;;;;;16.02;11.18;;;;;;;;;;5049469;28;20067;-72
2022/08/07 17:07:56;;;;;;;14.48;9.45;;;;;;;;;;5052302;28;20523;-72
2022/08/07 17:11:04;;;;;;;18.75;10.43;;;;;;;;;;5053126;28;20404;-72
2022/08/07 17:14:15;;;;;;;12.68;10.40;;;;;;;;;;5053910;28;20401;-72
2022/08/07 17:17:30;;;;;;;12.43;10.68;;;;;;;;;;5054070;28;20056;-72
2022/08/07 17:20:40;;;;;;;11.20;9.93;;;;;;;;;;5054090;28;20499;-71
2022/08/07 17:23:53;;;;;;;17.35;10.88;;;;;;;;;;5053651;28;20040;-72
2022/08/07 17:26:57;;;;;;;14.02;9.48;;;;;;;;;;5053809;28;20063;-72
2022/08/07 17:30:05;;;;;;;21.60;11.55;;;;;;;;;;5052710;28;20044;-72
2022/08/07 17:33:17;;;;;;;17.17;10.68;;;;;;;;;;5053549;28;20044;-72
2022/08/07 17:36:28;;;;;;;16.50;11.25;;;;;;;;;;5053632;28;20040;-72
2022/08/07 17:39:40;;;;;;;12.98;10.05;;;;;;;;;;5053434;28;20052;-72
2022/08/07 17:42:50;;;;;;;13.70;9.77;;;;;;;;;;5052823;28;20515;-72
2022/08/07 17:45:55;;;;;;;14.88;10.35;;;;;;;;;;5052588;28;20033;-73
2022/08/07 17:49:19;;;;;;;12.93;9.70;;;;;;;;;;5053319;28;20055;-73
2022/08/07 17:52:42;;;;;;;15.50;9.85;;;;;;;;;;5052790;28;20425;-73
2022/08/07 17:55:49;;;;;;;14.93;9.55;;;;;;;;;;5052732;28;20045;-72
2022/08/07 17:58:53;;;;;;;13.32;10.05;;;;;;;;;;5040948;28;20238;-73
2022/08/07 18:02:03;;;;;;;14.40;10.18;;;;;;;;;;5053096;28;20048;-73
2022/08/07 18:05:18;;;;;;;13.55;10.02;;;;;;;;;;5052891;28;20424;-73
2022/08/07 18:08:23;;;;;;;18.20;10.43;;;;;;;;;;5051994;28;20404;-73
2022/08/07 18:11:36;;;;;;;23.95;11.02;;;;;;;;;;5051713;28;20519;-73
2022/08/07 18:14:44;;;;;;;14.75;9.60;;;;;;;;;;5052874;28;20044;-74
2022/08/07 18:17:57;;;;;;;19.52;9.43;;;;;;;;;;5052974;28;20044;-74
2022/08/07 18:21:08;;;;;;;18.15;9.07;;;;;;;;;;5052952;28;20037;-74
2022/08/07 18:24:31;;;;;;;18.95;10.02;;;;;;;;;;5052380;28;20476;-74
2022/08/07 18:27:36;;;;;;;15.70;9.93;;;;;;;;;;5052366;28;20052;-74
2022/08/07 18:30:48;;;;;;;27.13;13.05;;;;;;;;;;5052313;28;20045;-74
2022/08/07 18:33:53;;;;;;;12.98;9.40;;;;;;;;;;5052142;28;20056;-74
2022/08/07 18:37:12;;;;;;;19.13;9.18;;;;;;;;;;5052114;28;20053;-74
2022/08/07 18:40:25;;;;;;;18.83;9.33;;;;;;;;;;5052337;28;20045;-75
2022/08/07 18:43:36;;;;;;;15.77;9.77;;;;;;;;;;5052117;28;20515;-74
2022/08/07 18:46:40;;;;;;;;;;;;;;;;;;5052355;28;20067;-74
2022/08/07 18:49:53;;;;;;;14.40;9.38;;;;;;;;;;5051510;28;19916;-73
2022/08/07 18:56:47;;;;;;;13.90;10.32;;;;;;;;;;5051851;28;20392;-74